Time;durP1;ratioP1;P1;durP2;ratioP2;P2;SDS_P1;SDS_P2;PMS_P1;PMS_P2;Temp;Humidity;BMP_temperature;BMP_pressure;BME280_temperature;BME280_humidity;BME280_pressure;Samples;Min_cycle;Max_cycle;Signal;HPM_P1;HPM_P2
2021/04/04 00:00:36;;;;;;;;;;;21.20;26.90;;;;;;491628;240;1165;-69
2021/04/04 00:02:37;;;;;;;;;;;21.30;26.90;;;;;;491609;240;1130;-69
2021/04/04 00:04:38;;;;;;;;;;;21.10;26.90;;;;;;491615;240;1145;-69
2021/04/04 00:06:39;;;;;;;;;;;21.10;26.90;;;;;;491540;240;2256;-69
2021/04/04 00:08:41;;;;;;;;;;;21.10;26.90;;;;;;491600;240;1174;-69
2021/04/04 00:10:42;;;;;;;;;;;21.20;26.80;;;;;;491674;240;1215;-69
2021/04/04 00:12:43;;;;;;;;;;;21.30;26.70;;;;;;491644;240;1020;-69
2021/04/04 00:14:45;;;;;;;;;;;21.20;26.80;;;;;;491666;240;1049;-69
2021/04/04 00:16:46;;;;;;;;;;;21.20;26.80;;;;;;491628;240;986;-69
2021/04/04 00:18:47;;;;;;;;;;;21.30;26.90;;;;;;491678;240;1013;-69
2021/04/04 00:20:48;;;;;;;;;;;21.10;26.90;;;;;;491672;240;1139;-69
2021/04/04 00:22:50;;;;;;;;;;;21.20;26.80;;;;;;491719;240;1310;-69
2021/04/04 00:24:51;;;;;;;;;;;21.10;26.80;;;;;;491614;240;1001;-69
2021/04/04 00:26:52;;;;;;;;;;;21.10;26.90;;;;;;491482;240;2132;-68
2021/04/04 00:28:54;;;;;;;;;;;21.20;26.80;;;;;;491677;240;991;-68
2021/04/04 00:30:55;;;;;;;;;;;21.20;26.80;;;;;;491580;240;979;-68
2021/04/04 00:32:56;;;;;;;;;;;21.20;26.80;;;;;;491545;240;1246;-68
2021/04/04 00:34:58;;;;;;;;;;;21.20;26.80;;;;;;491684;240;1033;-68
2021/04/04 00:36:59;;;;;;;;;;;21.10;26.80;;;;;;491714;240;1117;-68
2021/04/04 00:39:00;;;;;;;;;;;21.00;26.90;;;;;;491725;240;1102;-68
2021/04/04 00:41:02;;;;;;;;;;;21.10;26.90;;;;;;491613;240;1135;-69
2021/04/04 00:43:03;;;;;;;;;;;21.10;26.90;;;;;;491640;240;1136;-69
2021/04/04 00:45:04;;;;;;;;;;;21.10;26.90;;;;;;491682;240;1035;-69
2021/04/04 00:47:05;;;;;;;;;;;21.10;26.90;;;;;;491652;240;2121;-69
2021/04/04 00:49:07;;;;;;;;;;;21.20;26.80;;;;;;491618;240;1053;-69
2021/04/04 00:51:08;;;;;;;;;;;21.10;26.80;;;;;;491633;240;974;-69
2021/04/04 00:53:09;;;;;;;;;;;21.10;26.80;;;;;;491596;240;1162;-69
2021/04/04 00:55:11;;;;;;;;;;;21.00;26.80;;;;;;491684;240;976;-69
2021/04/04 00:57:12;;;;;;;;;;;21.10;26.80;;;;;;491614;240;1205;-69
2021/04/04 00:59:13;;;;;;;;;;;21.10;26.80;;;;;;491672;240;1064;-69
2021/04/04 01:01:14;;;;;;;;;;;21.10;26.80;;;;;;491644;240;1345;-69
2021/04/04 01:03:16;;;;;;;;;;;21.10;26.80;;;;;;491663;240;1090;-69
2021/04/04 01:05:21;;;;;;;;;;;21.10;26.80;;;;;;491711;240;952;-69
2021/04/04 01:07:18;;;;;;;;;;;21.10;26.80;;;;;;491600;241;2180;-69
2021/04/04 01:09:20;;;;;;;;;;;21.10;26.80;;;;;;491687;240;1172;-69
2021/04/04 01:11:21;;;;;;;;;;;21.10;26.80;;;;;;491677;240;1159;-69
2021/04/04 01:13:22;;;;;;;;;;;21.30;26.70;;;;;;491586;240;1195;-69
2021/04/04 01:15:23;;;;;;;;;;;21.10;26.80;;;;;;491628;240;1058;-69
2021/04/04 01:17:25;;;;;;;;;;;21.10;26.80;;;;;;491654;240;1114;-69
2021/04/04 01:19:26;;;;;;;;;;;21.10;26.80;;;;;;491649;240;1089;-69
2021/04/04 01:21:27;;;;;;;;;;;21.10;26.80;;;;;;491685;240;960;-69
2021/04/04 01:23:28;;;;;;;;;;;21.10;26.90;;;;;;491677;240;1169;-69
2021/04/04 01:25:30;;;;;;;;;;;21.10;26.90;;;;;;491631;240;2195;-69
2021/04/04 01:27:31;;;;;;;;;;;21.10;26.90;;;;;;491646;240;975;-69
2021/04/04 01:29:32;;;;;;;;;;;21.00;26.80;;;;;;491638;240;1175;-69
2021/04/04 01:31:34;;;;;;;;;;;21.00;26.80;;;;;;491648;240;1080;-69
2021/04/04 01:33:35;;;;;;;;;;;21.00;26.80;;;;;;491611;240;969;-69
2021/04/04 01:35:36;;;;;;;;;;;21.00;26.90;;;;;;491720;240;1173;-69
2021/04/04 01:37:38;;;;;;;;;;;21.00;26.90;;;;;;491741;240;1051;-69
2021/04/04 01:39:39;;;;;;;;;;;21.00;26.90;;;;;;491626;240;1164;-68
2021/04/04 01:41:40;;;;;;;;;;;21.00;26.90;;;;;;491634;240;950;-69
2021/04/04 01:43:42;;;;;;;;;;;21.00;26.80;;;;;;491623;240;973;-69
2021/04/04 01:45:43;;;;;;;;;;;21.00;26.90;;;;;;491701;240;2136;-69
2021/04/04 01:47:44;;;;;;;;;;;21.10;26.80;;;;;;491538;240;1137;-69
2021/04/04 01:49:45;;;;;;;;;;;21.10;26.80;;;;;;491666;240;966;-69
2021/04/04 01:51:47;;;;;;;;;;;21.00;26.70;;;;;;491684;240;1133;-69
2021/04/04 01:53:48;;;;;;;;;;;21.00;26.70;;;;;;491656;240;1172;-69
2021/04/04 01:55:49;;;;;;;;;;;21.10;26.80;;;;;;491627;240;1195;-68
2021/04/04 01:57:51;;;;;;;;;;;21.00;26.80;;;;;;491628;240;1132;-68
2021/04/04 01:59:52;;;;;;;;;;;21.10;26.80;;;;;;491671;240;1086;-69
2021/04/04 02:01:53;;;;;;;;;;;21.10;26.80;;;;;;491648;240;1169;-69
2021/04/04 02:03:54;;;;;;;;;;;21.00;26.80;;;;;;491581;240;1043;-69
2021/04/04 02:05:56;;;;;;;;;;;21.00;26.80;;;;;;491612;240;2199;-69
2021/04/04 02:07:57;;;;;;;;;;;21.00;26.90;;;;;;491698;240;1028;-69
2021/04/04 02:09:58;;;;;;;;;;;21.00;26.90;;;;;;491652;240;1181;-69
2021/04/04 02:11:59;;;;;;;;;;;21.00;26.90;;;;;;491572;240;1225;-68
2021/04/04 02:14:01;;;;;;;;;;;20.90;26.80;;;;;;491643;240;1047;-69
2021/04/04 02:16:02;;;;;;;;;;;20.90;26.80;;;;;;491656;240;1156;-69
2021/04/04 02:18:03;;;;;;;;;;;20.90;26.80;;;;;;491581;240;1025;-69
2021/04/04 02:20:05;;;;;;;;;;;20.90;26.90;;;;;;491600;240;1040;-69
2021/04/04 02:22:06;;;;;;;;;;;21.00;26.80;;;;;;491582;240;1207;-69
2021/04/04 02:24:07;;;;;;;;;;;21.00;26.80;;;;;;491587;240;1173;-69
2021/04/04 02:26:08;;;;;;;;;;;21.00;26.80;;;;;;491562;240;2133;-69
2021/04/04 02:28:10;;;;;;;;;;;20.90;26.80;;;;;;491596;240;1090;-69
2021/04/04 02:30:11;;;;;;;;;;;20.90;26.80;;;;;;491580;240;1229;-69
2021/04/04 02:32:12;;;;;;;;;;;21.00;26.80;;;;;;491626;240;1094;-68
2021/04/04 02:34:14;;;;;;;;;;;20.90;26.90;;;;;;491550;240;982;-68
2021/04/04 02:36:15;;;;;;;;;;;20.90;26.80;;;;;;491664;240;1219;-68
2021/04/04 02:38:16;;;;;;;;;;;20.90;26.90;;;;;;491666;240;950;-69
2021/04/04 02:40:17;;;;;;;;;;;20.80;26.90;;;;;;491738;240;1181;-69
2021/04/04 02:42:19;;;;;;;;;;;20.80;26.90;;;;;;491560;240;1119;-69
2021/04/04 02:44:20;;;;;;;;;;;20.90;26.90;;;;;;491596;240;1052;-69
2021/04/04 02:46:21;;;;;;;;;;;20.90;26.90;;;;;;491537;240;2117;-68
2021/04/04 02:48:23;;;;;;;;;;;21.00;26.80;;;;;;491601;240;996;-68
2021/04/04 02:50:24;;;;;;;;;;;20.90;26.80;;;;;;491565;240;1147;-69
2021/04/04 02:52:25;;;;;;;;;;;20.90;26.90;;;;;;491708;240;1097;-69
2021/04/04 02:54:26;;;;;;;;;;;20.80;26.90;;;;;;491622;240;1175;-69
2021/04/04 02:56:28;;;;;;;;;;;20.70;27.00;;;;;;491668;240;1213;-69
2021/04/04 02:58:29;;;;;;;;;;;20.70;27.10;;;;;;491657;240;1086;-69
2021/04/04 03:00:30;;;;;;;;;;;20.70;27.00;;;;;;491667;240;1237;-69
2021/04/04 03:02:32;;;;;;;;;;;20.70;27.00;;;;;;491570;240;989;-69
2021/04/04 03:04:33;;;;;;;;;;;20.70;27.00;;;;;;491635;240;1009;-69
2021/04/04 03:06:34;;;;;;;;;;;20.70;27.00;;;;;;491722;240;2140;-69
2021/04/04 03:08:36;;;;;;;;;;;20.70;27.00;;;;;;491594;240;996;-69
2021/04/04 03:10:37;;;;;;;;;;;20.70;27.00;;;;;;491704;240;1161;-69
2021/04/04 03:12:39;;;;;;;;;;;20.70;27.10;;;;;;491596;240;1114;-69
2021/04/04 03:14:39;;;;;;;;;;;20.60;27.00;;;;;;491673;240;1195;-68
2021/04/04 03:16:41;;;;;;;;;;;20.50;27.10;;;;;;491596;240;987;-68
2021/04/04 03:18:42;;;;;;;;;;;20.60;27.10;;;;;;491627;240;1035;-68
2021/04/04 03:20:43;;;;;;;;;;;20.60;27.10;;;;;;491588;240;1079;-68
2021/04/04 03:22:45;;;;;;;;;;;20.60;27.10;;;;;;491643;240;962;-68
2021/04/04 03:24:46;;;;;;;;;;;20.50;27.10;;;;;;491624;240;1288;-68
2021/04/04 03:26:47;;;;;;;;;;;20.40;27.10;;;;;;491630;240;2144;-69
2021/04/04 03:28:48;;;;;;;;;;;20.60;27.20;;;;;;491629;240;1019;-68
2021/04/04 03:30:50;;;;;;;;;;;20.50;27.20;;;;;;491640;240;1133;-68
2021/04/04 03:32:51;;;;;;;;;;;20.40;27.30;;;;;;491562;240;1019;-69
2021/04/04 03:34:52;;;;;;;;;;;20.40;27.30;;;;;;491643;240;1057;-69
2021/04/04 03:36:54;;;;;;;;;;;20.50;27.30;;;;;;491605;240;963;-69
2021/04/04 03:38:55;;;;;;;;;;;20.50;27.20;;;;;;491522;240;932;-69
2021/04/04 03:40:56;;;;;;;;;;;20.50;27.20;;;;;;491623;240;1176;-69
2021/04/04 03:42:57;;;;;;;;;;;20.40;27.20;;;;;;491540;240;1216;-69
2021/04/04 03:44:59;;;;;;;;;;;20.40;27.30;;;;;;491571;240;1116;-70
2021/04/04 03:47:00;;;;;;;;;;;20.30;27.40;;;;;;491594;240;2183;-69
2021/04/04 03:49:01;;;;;;;;;;;20.30;27.40;;;;;;491666;240;980;-69
2021/04/04 03:51:03;;;;;;;;;;;20.30;27.40;;;;;;491534;240;962;-69
2021/04/04 03:53:04;;;;;;;;;;;20.30;27.40;;;;;;491555;240;1044;-69
2021/04/04 03:55:05;;;;;;;;;;;20.30;27.40;;;;;;491633;240;1153;-69
2021/04/04 03:57:06;;;;;;;;;;;20.30;27.30;;;;;;491629;240;982;-69
2021/04/04 03:59:08;;;;;;;;;;;20.30;27.40;;;;;;491591;240;1015;-69
2021/04/04 04:01:09;;;;;;;;;;;20.30;27.40;;;;;;491511;240;1143;-69
2021/04/04 04:03:10;;;;;;;;;;;20.40;27.40;;;;;;491614;240;947;-69
2021/04/04 04:05:11;;;;;;;;;;;20.40;27.30;;;;;;491597;240;1042;-69
2021/04/04 04:07:13;;;;;;;;;;;20.40;27.30;;;;;;491542;240;2187;-69
2021/04/04 04:09:14;;;;;;;;;;;20.40;27.30;;;;;;491575;240;1104;-69
2021/04/04 04:11:15;;;;;;;;;;;20.30;27.40;;;;;;491633;240;1305;-69
2021/04/04 04:13:17;;;;;;;;;;;20.50;27.30;;;;;;491550;240;1093;-69
2021/04/04 04:15:18;;;;;;;;;;;20.30;27.20;;;;;;491609;240;1194;-69
2021/04/04 04:17:19;;;;;;;;;;;20.40;27.40;;;;;;491636;240;1241;-69
2021/04/04 04:19:20;;;;;;;;;;;20.30;27.40;;;;;;491609;240;971;-69
2021/04/04 04:21:22;;;;;;;;;;;20.30;27.40;;;;;;491539;240;1131;-69
2021/04/04 04:23:23;;;;;;;;;;;20.30;27.40;;;;;;491646;240;987;-69
2021/04/04 04:25:24;;;;;;;;;;;20.30;27.40;;;;;;491699;240;1221;-69
2021/04/04 04:27:26;;;;;;;;;;;20.30;27.40;;;;;;491614;240;2140;-68
2021/04/04 04:29:27;;;;;;;;;;;20.30;27.40;;;;;;491601;240;1284;-68
2021/04/04 04:31:28;;;;;;;;;;;20.30;27.40;;;;;;491611;240;1189;-69
2021/04/04 04:33:30;;;;;;;;;;;20.20;27.40;;;;;;491477;240;1072;-69
2021/04/04 04:35:31;;;;;;;;;;;20.30;27.50;;;;;;491558;240;1094;-69
2021/04/04 04:37:32;;;;;;;;;;;20.20;27.40;;;;;;491633;240;1095;-69
2021/04/04 04:39:33;;;;;;;;;;;20.30;27.40;;;;;;491577;240;955;-69
2021/04/04 04:41:35;;;;;;;;;;;20.30;27.40;;;;;;491578;240;1291;-69
2021/04/04 04:43:36;;;;;;;;;;;20.30;27.40;;;;;;491697;240;1060;-69
2021/04/04 04:45:37;;;;;;;;;;;20.40;27.30;;;;;;491657;240;959;-69
2021/04/04 04:47:39;;;;;;;;;;;20.40;27.30;;;;;;491660;240;2175;-69
2021/04/04 04:49:40;;;;;;;;;;;20.30;27.40;;;;;;491638;240;1151;-69
2021/04/04 04:51:41;;;;;;;;;;;20.30;27.40;;;;;;491615;240;961;-69
2021/04/04 04:53:42;;;;;;;;;;;20.40;27.40;;;;;;491659;240;1058;-69
2021/04/04 04:55:44;;;;;;;;;;;20.30;27.30;;;;;;491675;240;1144;-69
2021/04/04 04:57:45;;;;;;;;;;;20.30;27.40;;;;;;491681;240;1010;-69
2021/04/04 04:59:46;;;;;;;;;;;20.30;27.40;;;;;;491651;240;1038;-68
2021/04/04 05:01:48;;;;;;;;;;;20.20;27.40;;;;;;491706;240;1103;-69
2021/04/04 05:03:49;;;;;;;;;;;20.30;27.40;;;;;;491546;240;1081;-69
2021/04/04 05:05:50;;;;;;;;;;;20.20;27.40;;;;;;491646;240;976;-69
2021/04/04 05:07:52;;;;;;;;;;;20.10;27.40;;;;;;491653;240;2272;-69
2021/04/04 05:09:53;;;;;;;;;;;20.20;27.50;;;;;;491693;240;1057;-69
2021/04/04 05:11:54;;;;;;;;;;;20.20;27.50;;;;;;491585;240;1201;-69
2021/04/04 05:13:55;;;;;;;;;;;20.40;27.30;;;;;;491532;240;974;-69
2021/04/04 05:15:57;;;;;;;;;;;20.20;27.40;;;;;;491714;240;971;-69
2021/04/04 05:17:58;;;;;;;;;;;20.30;27.40;;;;;;491668;240;956;-69
2021/04/04 05:19:59;;;;;;;;;;;20.20;27.40;;;;;;491595;240;1014;-68
2021/04/04 05:22:00;;;;;;;;;;;20.30;27.40;;;;;;491593;240;974;-69
2021/04/04 05:24:02;;;;;;;;;;;20.10;27.40;;;;;;491560;240;969;-69
2021/04/04 05:26:03;;;;;;;;;;;20.20;27.40;;;;;;491621;240;1068;-69
2021/04/04 05:28:04;;;;;;;;;;;20.10;27.40;;;;;;491542;240;2200;-69
2021/04/04 05:30:06;;;;;;;;;;;20.10;27.50;;;;;;491616;240;955;-69
2021/04/04 05:32:07;;;;;;;;;;;20.10;27.50;;;;;;491579;240;971;-69
2021/04/04 05:34:08;;;;;;;;;;;20.10;27.50;;;;;;491621;240;1000;-69
2021/04/04 05:36:09;;;;;;;;;;;20.10;27.60;;;;;;491673;240;1062;-69
2021/04/04 05:38:11;;;;;;;;;;;20.10;27.60;;;;;;491640;240;1118;-69
2021/04/04 05:40:12;;;;;;;;;;;20.00;27.60;;;;;;491586;240;962;-69
2021/04/04 05:42:14;;;;;;;;;;;20.10;27.60;;;;;;491628;240;1177;-69
2021/04/04 05:44:15;;;;;;;;;;;20.10;27.60;;;;;;491673;242;1381;-69
2021/04/04 05:46:16;;;;;;;;;;;20.00;27.60;;;;;;491562;240;1197;-69
2021/04/04 05:48:17;;;;;;;;;;;20.00;27.70;;;;;;491632;240;2183;-69
2021/04/04 05:50:18;;;;;;;;;;;20.00;27.70;;;;;;491552;240;986;-69
2021/04/04 05:52:20;;;;;;;;;;;20.00;27.70;;;;;;491603;240;1002;-69
2021/04/04 05:54:21;;;;;;;;;;;20.00;27.70;;;;;;491617;240;1070;-69
2021/04/04 05:56:23;;;;;;;;;;;20.00;27.70;;;;;;491589;240;1148;-69
2021/04/04 05:58:24;;;;;;;;;;;20.00;27.70;;;;;;491640;240;1137;-69
2021/04/04 06:00:25;;;;;;;;;;;20.00;27.70;;;;;;491624;240;1148;-69
2021/04/04 06:02:26;;;;;;;;;;;20.00;27.80;;;;;;491552;240;975;-69
2021/04/04 06:04:28;;;;;;;;;;;20.00;27.80;;;;;;491578;240;1032;-69
2021/04/04 06:06:29;;;;;;;;;;;20.00;27.80;;;;;;491629;240;967;-69
2021/04/04 06:08:30;;;;;;;;;;;20.00;27.80;;;;;;491607;240;2137;-69
2021/04/04 06:10:32;;;;;;;;;;;20.00;27.70;;;;;;491651;240;1320;-69
2021/04/04 06:12:33;;;;;;;;;;;20.10;27.70;;;;;;491586;240;1167;-69
2021/04/04 06:14:34;;;;;;;;;;;20.20;27.60;;;;;;491606;240;1198;-69
2021/04/04 06:16:35;;;;;;;;;;;20.20;27.60;;;;;;491812;240;1018;-69
2021/04/04 06:18:37;;;;;;;;;;;20.10;27.60;;;;;;491626;240;1063;-69
2021/04/04 06:20:41;;;;;;;;;;;20.10;27.60;;;;;;491626;240;967;-69
2021/04/04 06:22:39;;;;;;;;;;;20.20;27.70;;;;;;491659;242;1389;-69
2021/04/04 06:24:41;;;;;;;;;;;20.20;27.60;;;;;;491588;240;1056;-69
2021/04/04 06:26:42;;;;;;;;;;;20.30;27.60;;;;;;491599;240;1277;-68
2021/04/04 06:28:43;;;;;;;;;;;20.20;27.70;;;;;;491604;240;2192;-69
2021/04/04 06:30:49;;;;;;;;;;;20.20;27.70;;;;;;491624;240;959;-69
2021/04/04 06:32:49;;;;;;;;;;;20.20;27.70;;;;;;491583;239;1394;-69
2021/04/04 06:34:50;;;;;;;;;;;20.20;27.70;;;;;;491657;240;1078;-69
2021/04/04 06:36:51;;;;;;;;;;;20.20;27.70;;;;;;491660;240;947;-69
2021/04/04 06:38:53;;;;;;;;;;;20.30;27.70;;;;;;491608;240;977;-69
2021/04/04 06:40:55;;;;;;;;;;;20.40;27.60;;;;;;491688;240;1071;-68
2021/04/04 06:42:56;;;;;;;;;;;20.50;27.50;;;;;;491731;240;1283;-69
2021/04/04 06:44:57;;;;;;;;;;;20.40;27.40;;;;;;491574;240;967;-69
2021/04/04 06:46:58;;;;;;;;;;;20.50;27.40;;;;;;491666;240;932;-69
2021/04/04 06:49:00;;;;;;;;;;;20.50;27.40;;;;;;491588;240;2201;-69
2021/04/04 06:51:01;;;;;;;;;;;20.50;27.50;;;;;;491634;240;951;-69
2021/04/04 06:53:02;;;;;;;;;;;20.50;27.50;;;;;;491639;240;1144;-69
2021/04/04 06:55:04;;;;;;;;;;;20.60;27.40;;;;;;491668;240;972;-69
2021/04/04 06:57:05;;;;;;;;;;;20.70;27.30;;;;;;491535;240;1179;-69
2021/04/04 06:59:06;;;;;;;;;;;20.70;27.20;;;;;;491585;240;968;-69
2021/04/04 07:01:08;;;;;;;;;;;20.90;27.20;;;;;;491633;240;973;-69
2021/04/04 07:03:09;;;;;;;;;;;20.90;27.20;;;;;;491580;240;1020;-68
2021/04/04 07:05:10;;;;;;;;;;;20.90;27.10;;;;;;491706;240;956;-69
2021/04/04 07:07:12;;;;;;;;;;;21.00;27.10;;;;;;491559;240;1075;-69
2021/04/04 07:09:13;;;;;;;;;;;21.10;27.10;;;;;;491514;240;2179;-69
2021/04/04 07:11:14;;;;;;;;;;;21.60;26.70;;;;;;491644;240;984;-69
2021/04/04 07:13:15;;;;;;;;;;;21.40;26.80;;;;;;491533;240;1201;-69
2021/04/04 07:15:17;;;;;;;;;;;21.50;26.70;;;;;;491452;240;1054;-69
2021/04/04 07:17:18;;;;;;;;;;;21.50;26.70;;;;;;491538;240;1038;-69
2021/04/04 07:19:20;;;;;;;;;;;21.40;26.80;;;;;;491569;240;1097;-69
2021/04/04 07:21:21;;;;;;;;;;;21.30;26.80;;;;;;491577;240;1075;-69
2021/04/04 07:23:22;;;;;;;;;;;21.30;26.80;;;;;;491492;240;1145;-69
2021/04/04 07:25:23;;;;;;;;;;;21.40;26.80;;;;;;491483;240;1189;-69
2021/04/04 07:27:25;;;;;;;;;;;21.40;26.70;;;;;;491489;240;1246;-69
2021/04/04 07:29:26;;;;;;;;;;;21.50;26.60;;;;;;491416;240;2113;-69
2021/04/04 07:31:27;;;;;;;;;;;21.60;26.60;;;;;;491471;240;1127;-69
2021/04/04 07:33:29;;;;;;;;;;;21.70;26.60;;;;;;491550;240;1116;-69
2021/04/04 07:35:31;;;;;;;;;;;21.70;26.60;;;;;;491561;240;986;-69
2021/04/04 07:37:32;;;;;;;;;;;21.80;26.50;;;;;;491582;240;1184;-69
2021/04/04 07:39:33;;;;;;;;;;;21.80;26.50;;;;;;491509;240;984;-68
2021/04/04 07:41:34;;;;;;;;;;;21.90;26.40;;;;;;491575;240;1271;-68
2021/04/04 07:43:36;;;;;;;;;;;21.80;26.40;;;;;;491544;240;1194;-68
2021/04/04 07:45:37;;;;;;;;;;;21.90;26.30;;;;;;491480;240;1078;-69
2021/04/04 07:47:38;;;;;;;;;;;21.90;26.40;;;;;;491564;240;2176;-69
2021/04/04 07:49:40;;;;;;;;;;;22.00;26.40;;;;;;491454;240;1110;-69
2021/04/04 07:51:41;;;;;;;;;;;22.00;26.30;;;;;;491504;240;949;-69
2021/04/04 07:53:42;;;;;;;;;;;22.20;26.30;;;;;;491549;240;1004;-69
2021/04/04 07:55:43;;;;;;;;;;;22.10;26.30;;;;;;491491;240;1049;-69
2021/04/04 07:57:45;;;;;;;;;;;22.00;26.30;;;;;;491488;240;1296;-69
2021/04/04 07:59:46;;;;;;;;;;;22.00;26.30;;;;;;491402;240;1009;-69
2021/04/04 08:01:47;;;;;;;;;;;22.00;26.30;;;;;;491510;240;1193;-69
2021/04/04 08:03:48;;;;;;;;;;;22.00;26.20;;;;;;491411;240;953;-69
2021/04/04 08:05:50;;;;;;;;;;;22.20;26.20;;;;;;491583;240;1059;-69
2021/04/04 08:07:51;;;;;;;;;;;22.10;26.20;;;;;;491499;240;2121;-69
2021/04/04 08:09:52;;;;;;;;;;;22.10;26.00;;;;;;491498;240;1066;-69
2021/04/04 08:11:54;;;;;;;;;;;22.20;26.00;;;;;;491481;240;1046;-68
2021/04/04 08:13:55;;;;;;;;;;;22.30;25.90;;;;;;491594;240;1197;-69
2021/04/04 08:15:56;;;;;;;;;;;22.20;25.90;;;;;;491444;240;1069;-69
2021/04/04 08:17:57;;;;;;;;;;;22.20;25.80;;;;;;491491;240;1033;-69
2021/04/04 08:19:59;;;;;;;;;;;22.20;25.80;;;;;;491629;240;1004;-69
2021/04/04 08:22:01;;;;;;;;;;;22.30;25.70;;;;;;491505;240;1073;-69
2021/04/04 08:24:02;;;;;;;;;;;22.30;25.60;;;;;;491447;240;1144;-69
2021/04/04 08:26:03;;;;;;;;;;;22.30;25.60;;;;;;491638;240;1071;-69
2021/04/04 08:28:04;;;;;;;;;;;22.30;25.60;;;;;;491541;240;2117;-69
2021/04/04 08:30:06;;;;;;;;;;;22.30;25.60;;;;;;491554;240;974;-69
2021/04/04 08:32:07;;;;;;;;;;;22.30;25.60;;;;;;491559;240;1074;-69
2021/04/04 08:34:09;;;;;;;;;;;22.30;25.60;;;;;;491561;240;961;-69
2021/04/04 08:36:10;;;;;;;;;;;22.40;25.50;;;;;;491622;240;1052;-69
2021/04/04 08:38:11;;;;;;;;;;;22.40;25.60;;;;;;491602;240;1062;-68
2021/04/04 08:40:13;;;;;;;;;;;22.40;25.50;;;;;;491538;240;959;-68
2021/04/04 08:42:15;;;;;;;;;;;22.30;25.50;;;;;;491573;240;1077;-68
2021/04/04 08:44:15;;;;;;;;;;;22.30;25.50;;;;;;491617;240;1840;-68
2021/04/04 08:46:17;;;;;;;;;;;22.30;25.50;;;;;;491606;240;1312;-69
2021/04/04 08:48:18;;;;;;;;;;;22.40;25.40;;;;;;491595;240;2136;-69
2021/04/04 08:50:19;;;;;;;;;;;22.40;25.40;;;;;;491667;240;978;-69
2021/04/04 08:52:21;;;;;;;;;;;22.50;25.30;;;;;;491655;240;1207;-69
2021/04/04 08:54:24;;;;;;;;;;;22.50;25.20;;;;;;491625;240;1080;-69
2021/04/04 08:56:23;;;;;;;;;;;22.50;25.20;;;;;;491578;242;1429;-69
2021/04/04 08:58:24;;;;;;;;;;;22.60;25.20;;;;;;491607;240;1292;-69
2021/04/04 09:00:26;;;;;;;;;;;22.40;25.20;;;;;;491628;240;992;-69
2021/04/04 09:02:27;;;;;;;;;;;22.50;25.20;;;;;;491552;240;988;-69
2021/04/04 09:04:28;;;;;;;;;;;22.50;25.10;;;;;;491614;240;1012;-69
2021/04/04 09:06:29;;;;;;;;;;;22.50;25.10;;;;;;491589;240;1153;-69
2021/04/04 09:08:31;;;;;;;;;;;22.50;25.00;;;;;;491569;240;2191;-69
2021/04/04 09:10:32;;;;;;;;;;;22.50;25.00;;;;;;491704;240;1154;-69
2021/04/04 09:12:33;;;;;;;;;;;22.50;25.00;;;;;;491618;240;1037;-69
2021/04/04 09:14:35;;;;;;;;;;;22.70;25.00;;;;;;491609;240;1288;-69
2021/04/04 09:16:36;;;;;;;;;;;22.60;24.90;;;;;;491595;240;1054;-69
2021/04/04 09:18:37;;;;;;;;;;;22.60;24.90;;;;;;491597;240;1063;-69
2021/04/04 09:20:40;;;;;;;;;;;22.60;24.90;;;;;;491611;240;1117;-69
2021/04/04 09:22:40;;;;;;;;;;;22.60;24.90;;;;;;491556;242;1374;-69
2021/04/04 09:24:41;;;;;;;;;;;22.70;24.90;;;;;;491687;240;995;-69
2021/04/04 09:26:42;;;;;;;;;;;22.60;24.80;;;;;;491559;240;975;-69
2021/04/04 09:28:44;;;;;;;;;;;22.60;24.80;;;;;;491587;238;2197;-69
2021/04/04 09:30:45;;;;;;;;;;;22.50;24.80;;;;;;491662;240;1023;-69
2021/04/04 09:32:46;;;;;;;;;;;22.60;24.90;;;;;;491549;240;1038;-69
2021/04/04 09:34:48;;;;;;;;;;;22.60;24.80;;;;;;491599;240;1190;-69
2021/04/04 09:36:49;;;;;;;;;;;22.60;24.80;;;;;;491530;240;1148;-69
2021/04/04 09:38:50;;;;;;;;;;;22.60;24.70;;;;;;491579;240;1066;-69
2021/04/04 09:40:51;;;;;;;;;;;22.50;24.70;;;;;;491691;240;1054;-69
2021/04/04 09:42:53;;;;;;;;;;;22.50;24.80;;;;;;491705;240;1058;-69
2021/04/04 09:44:54;;;;;;;;;;;22.60;24.70;;;;;;491570;240;1305;-69
2021/04/04 09:46:55;;;;;;;;;;;22.60;24.60;;;;;;491575;240;969;-70
2021/04/04 09:48:56;;;;;;;;;;;22.60;24.50;;;;;;491578;240;2188;-69
2021/04/04 09:50:58;;;;;;;;;;;22.70;24.50;;;;;;491633;240;1030;-69
2021/04/04 09:52:59;;;;;;;;;;;22.70;24.40;;;;;;491614;240;1008;-69
2021/04/04 09:55:00;;;;;;;;;;;22.70;24.40;;;;;;491650;240;981;-69
2021/04/04 09:57:02;;;;;;;;;;;22.70;24.30;;;;;;491596;240;963;-69
2021/04/04 09:59:03;;;;;;;;;;;22.80;24.20;;;;;;491550;240;1205;-69
2021/04/04 10:01:04;;;;;;;;;;;22.60;24.20;;;;;;491532;240;974;-69
2021/04/04 10:03:05;;;;;;;;;;;22.60;24.20;;;;;;491565;240;950;-69
2021/04/04 10:05:07;;;;;;;;;;;22.60;24.20;;;;;;491590;240;1026;-69
2021/04/04 10:07:08;;;;;;;;;;;22.60;24.10;;;;;;491617;240;1178;-69
2021/04/04 10:09:12;;;;;;;;;;;22.70;24.20;;;;;;491525;240;2188;-69
2021/04/04 10:11:11;;;;;;;;;;;22.60;24.10;;;;;;491739;241;1404;-69
2021/04/04 10:13:12;;;;;;;;;;;22.70;24.10;;;;;;491615;240;1148;-68
2021/04/04 10:15:13;;;;;;;;;;;22.80;24.00;;;;;;491621;240;1160;-69
2021/04/04 10:17:15;;;;;;;;;;;22.70;24.10;;;;;;491525;240;987;-69
2021/04/04 10:19:16;;;;;;;;;;;22.80;24.00;;;;;;491593;240;990;-69
2021/04/04 10:21:17;;;;;;;;;;;22.90;24.00;;;;;;491621;240;1044;-69
2021/04/04 10:23:19;;;;;;;;;;;22.80;24.00;;;;;;491641;240;1053;-69
2021/04/04 10:25:20;;;;;;;;;;;22.70;24.10;;;;;;491629;240;972;-69
2021/04/04 10:27:22;;;;;;;;;;;22.70;24.10;;;;;;491752;240;1145;-69
2021/04/04 10:29:26;;;;;;;;;;;22.70;24.00;;;;;;491508;240;2144;-69
2021/04/04 10:31:24;;;;;;;;;;;22.60;24.10;;;;;;491525;241;1411;-69
2021/04/04 10:33:26;;;;;;;;;;;22.70;24.00;;;;;;491484;240;1140;-69
2021/04/04 10:35:27;;;;;;;;;;;22.70;24.00;;;;;;491580;240;967;-69
2021/04/04 10:37:29;;;;;;;;;;;22.80;23.90;;;;;;491550;240;1186;-69
2021/04/04 10:39:30;;;;;;;;;;;22.70;23.90;;;;;;491537;240;1009;-69
2021/04/04 10:41:31;;;;;;;;;;;22.70;23.90;;;;;;491635;240;1121;-69
2021/04/04 10:43:32;;;;;;;;;;;22.60;24.00;;;;;;491627;240;998;-69
2021/04/04 10:45:34;;;;;;;;;;;22.60;23.90;;;;;;491640;240;1423;-68
2021/04/04 10:47:35;;;;;;;;;;;22.60;23.90;;;;;;491611;240;1246;-69
2021/04/04 10:49:36;;;;;;;;;;;22.60;23.90;;;;;;491548;240;2132;-69
2021/04/04 10:51:37;;;;;;;;;;;22.70;23.80;;;;;;491514;240;1206;-69
2021/04/04 10:53:39;;;;;;;;;;;22.40;23.90;;;;;;491561;240;1082;-69
2021/04/04 10:55:40;;;;;;;;;;;22.20;24.10;;;;;;491614;240;1181;-69
2021/04/04 10:57:41;;;;;;;;;;;22.10;24.20;;;;;;491504;240;1147;-69
2021/04/04 10:59:43;;;;;;;;;;;22.00;24.20;;;;;;491540;240;1175;-69
2021/04/04 11:01:44;;;;;;;;;;;22.00;24.30;;;;;;491603;240;1263;-69
2021/04/04 11:03:45;;;;;;;;;;;21.90;24.20;;;;;;491624;240;960;-69
2021/04/04 11:05:46;;;;;;;;;;;22.00;24.20;;;;;;491578;240;1217;-69
2021/04/04 11:07:48;;;;;;;;;;;22.00;24.20;;;;;;491575;240;1118;-69
2021/04/04 11:09:49;;;;;;;;;;;21.90;24.20;;;;;;491512;240;2153;-69
2021/04/04 11:11:50;;;;;;;;;;;21.90;24.20;;;;;;491635;240;1198;-69
2021/04/04 11:13:52;;;;;;;;;;;21.90;24.20;;;;;;491647;240;961;-69
2021/04/04 11:15:53;;;;;;;;;;;22.10;24.30;;;;;;491699;240;1197;-69
2021/04/04 11:17:55;;;;;;;;;;;22.00;24.30;;;;;;491642;240;1048;-69
2021/04/04 11:19:56;;;;;;;;;;;22.00;24.20;;;;;;491557;240;1034;-69
2021/04/04 11:21:57;;;;;;;;;;;22.10;24.20;;;;;;491486;240;1121;-69
2021/04/04 11:23:58;;;;;;;;;;;22.10;24.10;;;;;;491565;240;1056;-69
2021/04/04 11:26:00;;;;;;;;;;;22.00;24.10;;;;;;491592;240;1087;-69
2021/04/04 11:28:01;;;;;;;;;;;22.00;24.10;;;;;;491543;240;1015;-69
2021/04/04 11:30:02;;;;;;;;;;;22.00;24.10;;;;;;491534;240;2192;-69
2021/04/04 11:32:03;;;;;;;;;;;22.00;24.10;;;;;;491522;240;987;-69
2021/04/04 11:34:05;;;;;;;;;;;21.90;24.20;;;;;;491592;240;967;-69
2021/04/04 11:36:07;;;;;;;;;;;21.90;24.20;;;;;;491621;240;1047;-68
2021/04/04 11:38:08;;;;;;;;;;;21.80;24.20;;;;;;491630;240;959;-68
2021/04/04 11:40:09;;;;;;;;;;;21.90;24.10;;;;;;491530;240;1156;-69
2021/04/04 11:42:10;;;;;;;;;;;21.90;24.10;;;;;;491600;240;1064;-69
2021/04/04 11:44:12;;;;;;;;;;;21.90;24.10;;;;;;491557;240;1028;-69
2021/04/04 11:46:13;;;;;;;;;;;22.00;24.10;;;;;;491494;240;1291;-69
2021/04/04 11:48:14;;;;;;;;;;;21.90;24.00;;;;;;491538;240;1028;-69
2021/04/04 11:50:15;;;;;;;;;;;22.00;24.00;;;;;;491541;240;2192;-69
2021/04/04 11:52:17;;;;;;;;;;;22.00;24.00;;;;;;491537;240;1188;-69
2021/04/04 11:54:18;;;;;;;;;;;22.00;24.00;;;;;;491623;240;1172;-69
2021/04/04 11:56:19;;;;;;;;;;;22.00;24.10;;;;;;491618;240;1044;-69
2021/04/04 11:58:20;;;;;;;;;;;22.00;23.90;;;;;;491629;240;1077;-69